Time;durP1;ratioP1;P1;durP2;ratioP2;P2;SDS_P1;SDS_P2;PMS_P1;PMS_P2;Temp;Humidity;BMP_temperature;BMP_pressure;BME280_temperature;BME280_humidity;BME280_pressure;Samples;Min_cycle;Max_cycle;Signal;HPM_P1;HPM_P2
2020/12/08 00:00:17;;;;;;;13.90;10.83;;;3.30;99.90;;;;;;5028883;28;20211;-64
2020/12/08 00:02:43;;;;;;;12.43;9.97;;;3.30;99.90;;;;;;5028635;28;20207;-63
2020/12/08 00:05:11;;;;;;;15.00;11.03;;;3.30;99.90;;;;;;5028903;28;20211;-63
2020/12/08 00:07:37;;;;;;;17.80;13.27;;;3.20;99.90;;;;;;5028034;28;20231;-63
2020/12/08 00:10:04;;;;;;;17.27;12.73;;;3.20;99.90;;;;;;5027358;28;20213;-63
2020/12/08 00:12:30;;;;;;;16.77;11.20;;;3.20;99.90;;;;;;5027324;28;20233;-63
2020/12/08 00:14:57;;;;;;;16.07;11.60;;;3.20;99.90;;;;;;5023082;28;20258;-63
2020/12/08 00:17:23;;;;;;;16.63;11.80;;;3.30;99.90;;;;;;5023822;28;20227;-63
2020/12/08 00:19:49;;;;;;;15.90;12.00;;;3.40;99.90;;;;;;5023870;28;20222;-63
2020/12/08 00:22:16;;;;;;;14.60;11.53;;;3.50;99.90;;;;;;5023833;28;20246;-63
2020/12/08 00:24:43;;;;;;;14.40;11.27;;;3.60;99.90;;;;;;5024316;28;20211;-63
2020/12/08 00:27:09;;;;;;;15.60;11.57;;;3.70;99.90;;;;;;5028396;28;20241;-63
2020/12/08 00:29:36;;;;;;;16.27;12.67;;;3.90;99.90;;;;;;5029002;28;20230;-63
2020/12/08 00:32:03;;;;;;;15.20;11.33;;;4.10;99.90;;;;;;5028893;28;20218;-64
2020/12/08 00:34:29;;;;;;;15.57;11.97;;;4.20;99.90;;;;;;5028581;28;20207;-63
2020/12/08 00:36:56;;;;;;;14.33;11.27;;;4.30;99.90;;;;;;5029882;28;20233;-63
2020/12/08 00:39:23;;;;;;;15.30;11.33;;;4.50;99.90;;;;;;5023985;28;20226;-64
2020/12/08 00:41:49;;;;;;;16.37;11.70;;;4.60;99.90;;;;;;5027036;28;20276;-63
2020/12/08 00:44:15;;;;;;;15.30;11.97;;;4.70;99.90;;;;;;5031853;28;20207;-63
2020/12/08 00:46:41;;;;;;;14.10;11.30;;;4.80;99.90;;;;;;5028906;28;20214;-64
2020/12/08 00:49:08;;;;;;;14.33;11.67;;;4.90;99.90;;;;;;5021558;28;20199;-62
2020/12/08 00:51:34;;;;;;;13.67;10.87;;;4.90;99.90;;;;;;5021779;28;20211;-62
2020/12/08 00:54:01;;;;;;;15.73;11.87;;;5.00;99.90;;;;;;5027703;28;20203;-62
2020/12/08 00:56:31;;;;;;;15.33;11.63;;;5.00;99.90;;;;;;5030170;28;20274;-62
2020/12/08 00:58:57;;;;;;;16.20;11.33;;;5.10;99.90;;;;;;5028427;28;20265;-62
2020/12/08 01:01:23;;;;;;;17.77;12.17;;;5.10;99.90;;;;;;5028779;28;20631;-62
2020/12/08 01:03:49;;;;;;;15.83;11.77;;;5.10;99.90;;;;;;5030856;28;20218;-62
2020/12/08 01:06:16;;;;;;;15.17;11.40;;;5.00;99.90;;;;;;5030477;28;20234;-62
2020/12/08 01:08:42;;;;;;;14.37;11.80;;;4.90;99.90;;;;;;5029947;28;20223;-62
2020/12/08 01:11:08;;;;;;;15.30;11.60;;;4.80;99.90;;;;;;5028844;28;20207;-62
2020/12/08 01:13:35;;;;;;;15.53;12.13;;;4.80;99.90;;;;;;5023406;28;20207;-62
2020/12/08 01:16:02;;;;;;;17.60;12.77;;;4.80;99.90;;;;;;5015907;28;20214;-63
2020/12/08 01:18:28;;;;;;;16.67;12.77;;;4.80;99.90;;;;;;5014750;28;20227;-62
2020/12/08 01:20:55;;;;;;;17.77;13.70;;;4.80;99.90;;;;;;5015303;28;20202;-62
2020/12/08 01:23:22;;;;;;;18.63;13.23;;;4.70;99.90;;;;;;5015166;28;20238;-62
2020/12/08 01:25:49;;;;;;;16.60;12.97;;;4.80;99.90;;;;;;5019495;28;20690;-62
2020/12/08 01:28:17;;;;;;;18.13;13.10;;;4.70;99.90;;;;;;5015233;28;20223;-62
2020/12/08 01:30:44;;;;;;;18.47;14.13;;;4.70;99.90;;;;;;5022224;28;20207;-62
2020/12/08 01:33:10;;;;;;;20.83;15.30;;;4.70;99.90;;;;;;5028412;28;20213;-62
2020/12/08 01:35:36;;;;;;;18.63;13.10;;;4.60;99.90;;;;;;5027451;28;20511;-62
2020/12/08 01:38:03;;;;;;;24.17;16.73;;;4.60;99.90;;;;;;5029555;28;20231;-62
2020/12/08 01:40:29;;;;;;;21.10;15.20;;;4.60;99.90;;;;;;5027183;28;20706;-62
2020/12/08 01:42:56;;;;;;;22.47;14.93;;;4.40;99.90;;;;;;5028918;28;20207;-62
2020/12/08 01:45:22;;;;;;;18.00;12.93;;;4.50;99.90;;;;;;5028577;28;20211;-62
2020/12/08 01:47:49;;;;;;;22.43;16.13;;;4.60;99.90;;;;;;5028892;28;20250;-62
2020/12/08 01:50:15;;;;;;;20.13;14.70;;;4.60;99.90;;;;;;5025292;28;20203;-62
2020/12/08 01:52:41;;;;;;;22.67;15.83;;;4.70;99.90;;;;;;5017966;28;20214;-62
2020/12/08 01:55:08;;;;;;;17.80;13.40;;;4.70;99.90;;;;;;5013935;28;20210;-62
2020/12/08 01:57:34;;;;;;;24.40;17.50;;;4.80;99.90;;;;;;5013877;28;20234;-62
2020/12/08 02:00:00;;;;;;;19.00;14.77;;;4.90;99.90;;;;;;5013747;28;20230;-62
2020/12/08 02:02:26;;;;;;;21.20;14.83;;;5.00;99.90;;;;;;5013902;28;20261;-62
2020/12/08 02:04:53;;;;;;;20.90;16.60;;;5.00;99.90;;;;;;5013924;28;20206;-62
2020/12/08 02:07:19;;;;;;;19.63;14.07;;;4.90;99.90;;;;;;5014035;28;20231;-62
2020/12/08 02:09:45;;;;;;;19.43;14.63;;;4.80;99.90;;;;;;5013693;28;20210;-62
2020/12/08 02:12:12;;;;;;;24.37;18.93;;;4.80;99.90;;;;;;5013658;28;20273;-62
2020/12/08 02:14:38;;;;;;;33.43;25.00;;;4.90;99.90;;;;;;5013440;28;20207;-62
2020/12/08 02:17:04;;;;;;;19.60;14.50;;;5.00;99.90;;;;;;5013400;28;20234;-62
2020/12/08 02:19:31;;;;;;;20.83;15.90;;;4.90;99.90;;;;;;5013130;28;20226;-62
2020/12/08 02:21:58;;;;;;;18.03;14.30;;;4.90;99.90;;;;;;5013734;28;20557;-62
2020/12/08 02:24:24;;;;;;;20.70;15.20;;;4.70;99.90;;;;;;5013580;28;20203;-62
2020/12/08 02:26:51;;;;;;;19.07;13.73;;;4.60;99.90;;;;;;5013228;28;20563;-62
2020/12/08 02:29:17;;;;;;;18.63;14.13;;;4.60;99.90;;;;;;5013204;28;20211;-62
2020/12/08 02:31:43;;;;;;;18.60;13.57;;;4.60;99.90;;;;;;5013498;28;20227;-62
2020/12/08 02:34:09;;;;;;;20.97;14.67;;;4.60;99.90;;;;;;5013047;28;20670;-62
2020/12/08 02:36:35;;;;;;;20.60;14.43;;;4.60;99.90;;;;;;5013460;28;20246;-62
2020/12/08 02:39:03;;;;;;;21.30;15.93;;;4.50;99.90;;;;;;5013008;28;20231;-62
2020/12/08 02:41:29;;;;;;;22.37;15.90;;;4.50;99.90;;;;;;5013254;28;20215;-62
2020/12/08 02:43:55;;;;;;;18.33;14.37;;;4.30;99.90;;;;;;5012837;28;20262;-62
2020/12/08 02:46:22;;;;;;;19.50;14.70;;;4.30;99.90;;;;;;5012978;28;20215;-62
2020/12/08 02:48:48;;;;;;;20.53;14.97;;;4.30;99.90;;;;;;5012629;28;20780;-62
2020/12/08 02:51:18;;;;;;;20.53;14.83;;;4.40;99.90;;;;;;5013590;28;20211;-62
2020/12/08 02:53:44;;;;;;;19.23;14.50;;;4.50;99.90;;;;;;5012700;28;20207;-62
2020/12/08 02:56:12;;;;;;;20.13;14.57;;;4.60;99.90;;;;;;5012691;28;20235;-62
2020/12/08 02:58:38;;;;;;;18.47;13.97;;;4.60;99.90;;;;;;5012407;28;20304;-62
2020/12/08 03:01:04;;;;;;;21.20;15.40;;;4.40;99.90;;;;;;5012679;28;20268;-62
2020/12/08 03:03:31;;;;;;;18.67;13.97;;;4.30;99.90;;;;;;5013526;28;20203;-62
2020/12/08 03:05:57;;;;;;;19.67;14.80;;;4.10;99.90;;;;;;5012827;28;20528;-62
2020/12/08 03:08:23;;;;;;;21.90;15.07;;;4.10;99.90;;;;;;5012393;28;20261;-62
2020/12/08 03:10:50;;;;;;;20.47;14.73;;;3.90;99.90;;;;;;5012609;28;20203;-62
2020/12/08 03:13:17;;;;;;;20.43;14.53;;;3.80;99.90;;;;;;5012744;28;20215;-62
2020/12/08 03:15:43;;;;;;;21.77;16.00;;;3.80;99.90;;;;;;5012304;28;20221;-62
2020/12/08 03:18:09;;;;;;;19.00;14.20;;;3.70;99.90;;;;;;5012912;28;20230;-62
2020/12/08 03:20:36;;;;;;;20.70;15.40;;;3.70;99.90;;;;;;5012942;28;20257;-62
2020/12/08 03:23:02;;;;;;;21.30;15.00;;;3.60;99.90;;;;;;5013443;28;20215;-62
2020/12/08 03:25:28;;;;;;;21.43;15.77;;;3.60;99.90;;;;;;5012926;28;20207;-62
2020/12/08 03:27:54;;;;;;;21.73;15.63;;;3.60;99.90;;;;;;5012846;28;20261;-62
2020/12/08 03:30:21;;;;;;;22.13;15.97;;;3.60;99.90;;;;;;5012221;28;20206;-62
2020/12/08 03:32:47;;;;;;;20.87;15.70;;;3.70;99.90;;;;;;5012179;28;20690;-62
2020/12/08 03:35:13;;;;;;;21.53;15.30;;;3.70;99.90;;;;;;5012176;28;20687;-62
2020/12/08 03:37:40;;;;;;;22.83;16.23;;;3.80;99.90;;;;;;5012210;28;20242;-62
2020/12/08 03:40:06;;;;;;;25.97;17.30;;;3.80;99.90;;;;;;5012387;28;20219;-62
2020/12/08 03:42:32;;;;;;;27.23;17.40;;;3.80;99.90;;;;;;5012131;28;20214;-62
2020/12/08 03:44:58;;;;;;;25.90;16.07;;;3.70;99.90;;;;;;5011890;28;20211;-62
2020/12/08 03:47:25;;;;;;;21.47;14.90;;;3.70;99.90;;;;;;5012218;28;20227;-62
2020/12/08 03:49:52;;;;;;;21.07;15.33;;;3.70;99.90;;;;;;5011811;28;20207;-62
2020/12/08 03:52:18;;;;;;;22.97;15.47;;;3.70;99.90;;;;;;5012040;28;20257;-62
2020/12/08 03:54:45;;;;;;;21.13;15.30;;;3.70;99.90;;;;;;5011695;28;20211;-62
2020/12/08 03:57:11;;;;;;;21.67;15.53;;;3.70;99.90;;;;;;5011773;28;20238;-62
2020/12/08 03:59:37;;;;;;;20.60;14.93;;;3.70;99.90;;;;;;5011615;28;20265;-62
2020/12/08 04:02:03;;;;;;;22.17;15.27;;;3.60;99.90;;;;;;5012255;28;20202;-62
2020/12/08 04:04:30;;;;;;;22.97;15.47;;;3.50;99.90;;;;;;5011688;28;20625;-62
2020/12/08 04:06:56;;;;;;;21.43;15.83;;;3.50;99.90;;;;;;5011767;28;20701;-62
2020/12/08 04:09:22;;;;;;;21.90;16.03;;;3.60;99.90;;;;;;5011494;28;20206;-62
2020/12/08 04:11:48;;;;;;;22.20;15.57;;;3.60;99.90;;;;;;5011341;28;20211;-62
2020/12/08 04:14:15;;;;;;;22.73;16.53;;;3.50;99.90;;;;;;5011510;28;20214;-62
2020/12/08 04:16:44;;;;;;;22.13;15.53;;;3.50;99.90;;;;;;5011959;28;20675;-62
2020/12/08 04:19:10;;;;;;;22.97;15.50;;;3.40;99.90;;;;;;5011718;28;20233;-62
2020/12/08 04:21:37;;;;;;;22.60;15.93;;;3.40;99.90;;;;;;5011236;28;20203;-61
2020/12/08 04:24:03;;;;;;;21.53;15.77;;;3.40;99.90;;;;;;5011132;28;20215;-62
2020/12/08 04:26:31;;;;;;;21.00;15.67;;;3.40;99.90;;;;;;5011372;28;20257;-62
2020/12/08 04:28:57;;;;;;;21.30;15.03;;;3.40;99.90;;;;;;5011087;28;20517;-62
2020/12/08 04:31:24;;;;;;;22.30;15.63;;;3.40;99.90;;;;;;5011419;28;20675;-62
2020/12/08 04:33:52;;;;;;;24.03;16.90;;;3.40;99.90;;;;;;5011222;28;20209;-62
2020/12/08 04:36:20;;;;;;;22.93;16.30;;;3.40;99.90;;;;;;5011541;28;20210;-62
2020/12/08 04:38:47;;;;;;;22.40;15.30;;;3.40;99.90;;;;;;5011289;28;20265;-62
2020/12/08 04:41:19;;;;;;;22.03;16.23;;;3.30;99.90;;;;;;5011524;28;20211;-61
2020/12/08 04:43:46;;;;;;;20.93;15.40;;;3.20;99.90;;;;;;5011354;28;20207;-62
2020/12/08 04:46:12;;;;;;;22.43;16.00;;;3.10;99.90;;;;;;5011508;28;20215;-62
2020/12/08 04:48:39;;;;;;;27.13;18.73;;;3.00;99.90;;;;;;5011093;28;20233;-61
2020/12/08 04:51:06;;;;;;;23.83;17.30;;;3.00;99.90;;;;;;5011407;28;20211;-61
2020/12/08 04:53:32;;;;;;;22.43;16.73;;;3.00;99.90;;;;;;5010784;28;20674;-62
2020/12/08 04:55:59;;;;;;;24.53;17.40;;;3.00;99.90;;;;;;5011280;28;20206;-62
2020/12/08 04:58:25;;;;;;;24.10;16.30;;;3.00;99.90;;;;;;5010508;28;20772;-62
2020/12/08 05:00:52;;;;;;;23.97;17.00;;;3.00;99.90;;;;;;5011190;28;20230;-62
2020/12/08 05:03:22;;;;;;;24.70;16.50;;;3.00;99.90;;;;;;5011276;28;20217;-62
2020/12/08 05:05:49;;;;;;;27.77;17.23;;;2.90;99.90;;;;;;5011072;28;20210;-61
2020/12/08 05:08:16;;;;;;;24.83;16.97;;;2.80;99.90;;;;;;5010837;28;20742;-62
2020/12/08 05:10:42;;;;;;;27.20;17.63;;;2.80;99.90;;;;;;5011312;28;20213;-61
2020/12/08 05:13:15;;;;;;;24.37;17.20;;;2.80;99.90;;;;;;5011168;28;20214;-61
2020/12/08 05:15:42;;;;;;;25.33;17.10;;;2.80;99.90;;;;;;5010928;28;20210;-62
2020/12/08 05:18:10;;;;;;;24.67;17.43;;;2.80;99.90;;;;;;5010851;28;20227;-62
2020/12/08 05:20:36;;;;;;;26.53;17.83;;;2.90;99.90;;;;;;5010848;28;20261;-63
2020/12/08 05:23:02;;;;;;;24.07;16.50;;;3.00;99.90;;;;;;5014040;28;20269;-62
2020/12/08 05:25:30;;;;;;;25.40;17.13;;;3.00;99.90;;;;;;5017013;28;20210;-62
2020/12/08 05:27:58;;;;;;;29.30;18.13;;;3.00;99.90;;;;;;5015760;28;20670;-62
2020/12/08 05:30:27;;;;;;;24.77;16.77;;;3.00;99.90;;;;;;5015727;28;20210;-62
2020/12/08 05:32:54;;;;;;;23.27;16.17;;;3.20;99.90;;;;;;5014662;28;20207;-62
2020/12/08 05:35:22;;;;;;;25.80;17.93;;;2.90;99.90;;;;;;5014526;28;20213;-62
2020/12/08 05:37:50;;;;;;;27.40;17.90;;;2.90;99.90;;;;;;5014690;28;20230;-62
2020/12/08 05:40:18;;;;;;;23.80;16.57;;;2.90;99.90;;;;;;5014983;28;20313;-62
2020/12/08 05:42:46;;;;;;;24.63;17.67;;;2.90;99.90;;;;;;5015358;28;20203;-62
2020/12/08 05:45:13;;;;;;;25.47;17.83;;;2.90;99.90;;;;;;5014946;28;20214;-63
2020/12/08 05:47:49;;;;;;;26.50;18.17;;;2.90;99.90;;;;;;5015151;28;20277;-62
2020/12/08 05:50:16;;;;;;;26.50;18.73;;;3.00;99.90;;;;;;5014477;28;20213;-63
2020/12/08 05:52:47;;;;;;;27.20;18.10;;;3.00;99.90;;;;;;5014483;28;20222;-62
2020/12/08 05:55:14;;;;;;;30.43;19.30;;;3.10;99.90;;;;;;5013938;28;20242;-62
2020/12/08 05:57:42;;;;;;;26.13;17.90;;;3.20;99.90;;;;;;5015424;28;20234;-62
2020/12/08 06:00:19;;;;;;;26.33;17.37;;;3.20;99.90;;;;;;5014850;28;20233;-62
2020/12/08 06:02:47;;;;;;;24.80;16.77;;;3.30;99.90;;;;;;5014802;28;20230;-63
2020/12/08 06:05:24;;;;;;;22.77;16.33;;;3.50;99.90;;;;;;5014176;28;20222;-63
2020/12/08 06:07:50;;;;;;;28.50;19.07;;;3.50;99.90;;;;;;5013527;28;20710;-62
2020/12/08 06:10:16;;;;;;;27.63;18.67;;;3.50;99.90;;;;;;5014478;28;20207;-63
2020/12/08 06:12:42;;;;;;;28.13;18.83;;;3.60;99.90;;;;;;5013903;28;20211;-62
2020/12/08 06:15:22;;;;;;;26.90;18.30;;;3.60;99.90;;;;;;5014076;28;20210;-63
2020/12/08 06:17:49;;;;;;;30.17;17.67;;;3.70;99.90;;;;;;5013330;28;20237;-62
2020/12/08 06:20:15;;;;;;;33.70;22.70;;;3.70;99.90;;;;;;5013966;28;20258;-64
2020/12/08 06:22:52;;;;;;;26.00;17.67;;;3.80;99.90;;;;;;5013497;28;20221;-62
2020/12/08 06:25:18;;;;;;;24.87;18.03;;;3.80;99.90;;;;;;5012843;28;20587;-62
2020/12/08 06:27:44;;;;;;;24.83;17.30;;;3.80;99.90;;;;;;5013485;28;20374;-62
2020/12/08 06:30:11;;;;;;;25.23;17.90;;;3.90;99.90;;;;;;5013597;28;20199;-62
2020/12/08 06:32:37;;;;;;;24.83;17.53;;;3.80;99.90;;;;;;5014001;28;20567;-62
2020/12/08 06:35:06;;;;;;;27.27;18.73;;;3.70;99.90;;;;;;5012691;28;20211;-62
2020/12/08 06:37:32;;;;;;;26.40;17.33;;;3.70;99.90;;;;;;5013501;28;20235;-63
2020/12/08 06:40:08;;;;;;;24.97;18.00;;;3.60;99.90;;;;;;5012896;28;20219;-62
2020/12/08 06:42:34;;;;;;;28.70;19.47;;;3.50;99.90;;;;;;5013810;28;20629;-63
2020/12/08 06:45:08;;;;;;;27.57;18.83;;;3.40;99.90;;;;;;5014529;28;20211;-63
2020/12/08 06:47:35;;;;;;;27.23;18.47;;;3.30;99.90;;;;;;5013018;28;20227;-62
2020/12/08 06:50:02;;;;;;;28.27;18.07;;;3.30;99.90;;;;;;5013437;28;20210;-62
2020/12/08 06:52:29;;;;;;;25.37;17.97;;;3.30;99.90;;;;;;5013237;28;20698;-62
2020/12/08 06:54:59;;;;;;;39.20;22.93;;;3.40;99.90;;;;;;5012706;28;20206;-62
2020/12/08 06:57:25;;;;;;;25.40;17.90;;;3.40;99.90;;;;;;5012781;28;20243;-62
2020/12/08 07:00:01;;;;;;;26.00;18.40;;;3.40;99.90;;;;;;5013010;28;20230;-63
2020/12/08 07:02:28;;;;;;;23.93;16.73;;;3.40;99.90;;;;;;5012865;28;20214;-63
2020/12/08 07:04:54;;;;;;;26.80;18.07;;;3.50;99.90;;;;;;5012793;28;20245;-63
2020/12/08 07:07:21;;;;;;;24.97;17.60;;;3.50;99.90;;;;;;5012679;28;20254;-62
2020/12/08 07:09:48;;;;;;;30.93;20.77;;;3.30;99.90;;;;;;5012328;28;20210;-62
2020/12/08 07:12:14;;;;;;;28.30;18.80;;;3.20;99.90;;;;;;5013286;28;20702;-62
2020/12/08 07:14:40;;;;;;;29.27;20.40;;;3.20;99.90;;;;;;5013482;28;20572;-62
2020/12/08 07:17:07;;;;;;;28.83;21.23;;;3.20;99.90;;;;;;5016605;28;20227;-62
2020/12/08 07:19:33;;;;;;;27.30;18.07;;;3.20;99.90;;;;;;5032046;28;20223;-62
2020/12/08 07:22:00;;;;;;;31.67;21.03;;;3.20;99.90;;;;;;5031435;28;20207;-63
2020/12/08 07:24:26;;;;;;;45.53;28.90;;;3.10;99.90;;;;;;5026393;28;20207;-61
2020/12/08 07:26:58;;;;;;;30.10;19.73;;;3.00;99.90;;;;;;5015724;28;20211;-63
2020/12/08 07:29:24;;;;;;;30.70;19.80;;;2.90;99.90;;;;;;5012890;28;20293;-62
2020/12/08 07:31:50;;;;;;;51.93;32.53;;;2.90;99.90;;;;;;5019794;28;20726;-62
2020/12/08 07:34:16;;;;;;;28.77;19.27;;;2.90;99.90;;;;;;5027965;28;20302;-62
2020/12/08 07:36:43;;;;;;;134.43;74.80;;;3.00;99.90;;;;;;5029957;28;20215;-66
2020/12/08 07:39:16;;;;;;;31.60;21.73;;;3.00;99.90;;;;;;5033202;28;20659;-62
2020/12/08 07:41:43;;;;;;;27.37;18.80;;;3.10;99.90;;;;;;5032783;28;20493;-62
2020/12/08 07:44:12;;;;;;;25.80;17.93;;;3.20;99.90;;;;;;5012742;28;20207;-63
2020/12/08 07:46:48;;;;;;;24.13;17.60;;;3.20;99.90;;;;;;5012863;28;20603;-62
2020/12/08 07:49:14;;;;;;;24.90;17.27;;;3.20;99.90;;;;;;5012367;28;20690;-63
2020/12/08 07:51:41;;;;;;;25.03;17.80;;;3.20;99.90;;;;;;5012321;28;20215;-62
2020/12/08 07:54:08;;;;;;;25.63;17.63;;;3.30;99.90;;;;;;5011785;28;20391;-63
2020/12/08 07:56:36;;;;;;;25.97;17.87;;;3.50;99.90;;;;;;5012311;28;20210;-63
2020/12/08 07:59:03;;;;;;;26.80;18.53;;;3.70;99.90;;;;;;5012648;28;20242;-63
2020/12/08 08:01:38;;;;;;;24.33;17.70;;;3.70;99.90;;;;;;5012835;28;20214;-63
2020/12/08 08:04:04;;;;;;;24.60;15.60;;;3.60;99.90;;;;;;5012197;28;20206;-63
2020/12/08 08:06:30;;;;;;;25.03;17.37;;;3.60;99.90;;;;;;5012018;28;20210;-63
2020/12/08 08:08:56;;;;;;;27.03;17.80;;;3.50;99.90;;;;;;5011770;28;20234;-63
2020/12/08 08:11:22;;;;;;;25.40;17.53;;;3.30;99.90;;;;;;5011891;28;20246;-62
2020/12/08 08:13:49;;;;;;;27.07;17.70;;;3.20;99.90;;;;;;5013424;28;20615;-67
2020/12/08 08:16:16;;;;;;;26.97;18.13;;;3.20;99.90;;;;;;5012809;28;20202;-62
2020/12/08 08:18:44;;;;;;;26.40;17.23;;;3.10;99.90;;;;;;5011783;28;20243;-63
2020/12/08 08:21:12;;;;;;;24.97;16.87;;;3.10;99.90;;;;;;5011817;28;20596;-63
2020/12/08 08:23:38;;;;;;;26.03;17.83;;;3.20;99.90;;;;;;5011501;28;20203;-62
2020/12/08 08:26:05;;;;;;;23.67;16.63;;;3.30;99.90;;;;;;5011689;28;20206;-63
2020/12/08 08:28:32;;;;;;;24.90;16.67;;;3.30;99.90;;;;;;5011217;28;20710;-63
2020/12/08 08:30:58;;;;;;;24.83;17.03;;;3.30;99.90;;;;;;5011620;28;20681;-63
2020/12/08 08:33:24;;;;;;;24.40;16.40;;;3.20;99.90;;;;;;5011856;28;20206;-63
2020/12/08 08:35:51;;;;;;;23.53;16.07;;;3.10;99.90;;;;;;5011710;28;20214;-62
2020/12/08 08:38:18;;;;;;;27.43;18.53;;;3.10;99.90;;;;;;5011997;28;20633;-63
2020/12/08 08:40:44;;;;;;;25.17;17.27;;;3.20;99.90;;;;;;5012564;28;20565;-62
2020/12/08 08:43:11;;;;;;;23.73;16.93;;;3.30;99.90;;;;;;5012213;28;20214;-62
2020/12/08 08:45:37;;;;;;;24.93;16.53;;;3.50;99.90;;;;;;5011744;28;20214;-63
2020/12/08 08:48:03;;;;;;;22.87;16.97;;;3.70;99.90;;;;;;5011903;28;20289;-62
2020/12/08 08:50:29;;;;;;;25.37;16.77;;;4.00;99.90;;;;;;5011613;28;20249;-62
2020/12/08 08:52:56;;;;;;;24.73;16.53;;;4.30;99.90;;;;;;5011226;28;20214;-63
2020/12/08 08:55:22;;;;;;;23.47;16.53;;;4.70;99.90;;;;;;5011183;28;20211;-63
2020/12/08 08:57:48;;;;;;;24.20;17.03;;;5.10;99.90;;;;;;5044194;22;20229;-66
2020/12/08 09:00:15;;;;;;;21.17;16.07;;;5.40;99.90;;;;;;5035597;28;20360;-66
2020/12/08 09:02:41;;;;;;;23.73;17.10;;;5.50;99.90;;;;;;5036458;28;20202;-66
2020/12/08 09:05:07;;;;;;;21.57;15.17;;;5.60;99.90;;;;;;5036388;28;20235;-66
2020/12/08 09:07:34;;;;;;;20.57;14.67;;;5.50;99.90;;;;;;5036195;28;20269;-66
2020/12/08 09:10:01;;;;;;;20.30;15.07;;;5.50;99.90;;;;;;5035761;28;20212;-65
2020/12/08 09:12:28;;;;;;;21.00;16.13;;;5.20;99.90;;;;;;5035913;28;20224;-66
2020/12/08 09:14:57;;;;;;;21.53;15.27;;;5.30;99.90;;;;;;5035588;28;20669;-66
2020/12/08 09:17:23;;;;;;;23.40;15.43;;;5.10;99.90;;;;;;5035087;28;20258;-66
2020/12/08 09:19:49;;;;;;;21.80;15.83;;;5.00;99.90;;;;;;5034925;28;20222;-66
2020/12/08 09:22:16;;;;;;;22.90;16.47;;;4.90;99.90;;;;;;5035175;28;20592;-66
2020/12/08 09:24:42;;;;;;;22.53;15.53;;;5.00;99.90;;;;;;5035030;28;20217;-65
2020/12/08 09:27:09;;;;;;;19.63;14.33;;;5.00;99.90;;;;;;5035406;28;20696;-65
2020/12/08 09:29:36;;;;;;;19.53;14.10;;;4.80;99.90;;;;;;5035305;28;20210;-61
2020/12/08 09:32:03;;;;;;;20.30;14.37;;;4.70;99.90;;;;;;5034259;28;20271;-61
2020/12/08 09:34:30;;;;;;;20.10;14.47;;;4.60;99.90;;;;;;5033653;28;20217;-61
2020/12/08 09:36:57;;;;;;;17.87;14.00;;;4.60;99.90;;;;;;5033621;28;20206;-64
2020/12/08 09:39:24;;;;;;;18.37;13.23;;;4.70;99.90;;;;;;5033167;28;20230;-60
2020/12/08 09:41:50;;;;;;;18.67;14.23;;;4.50;99.90;;;;;;5033695;28;20589;-61
2020/12/08 09:44:17;;;;;;;21.17;14.37;;;4.40;99.90;;;;;;5033279;28;20206;-61
2020/12/08 09:46:44;;;;;;;18.47;13.87;;;4.50;99.90;;;;;;5033510;28;20206;-61
2020/12/08 09:49:11;;;;;;;18.83;13.90;;;4.60;99.90;;;;;;5032913;28;20230;-61
2020/12/08 09:51:37;;;;;;;19.57;13.93;;;4.50;99.90;;;;;;5033198;28;20209;-61
2020/12/08 09:54:05;;;;;;;18.00;13.40;;;4.60;99.90;;;;;;5033175;28;20221;-61
2020/12/08 09:56:31;;;;;;;19.30;13.70;;;4.60;99.90;;;;;;5033289;28;20202;-60
2020/12/08 09:58:58;;;;;;;19.43;14.57;;;4.50;99.90;;;;;;5032733;28;20244;-61
2020/12/08 10:01:26;;;;;;;19.47;13.97;;;4.50;99.90;;;;;;5033002;28;20728;-61
2020/12/08 10:03:52;;;;;;;20.67;14.73;;;4.60;99.90;;;;;;5033012;28;20685;-61
2020/12/08 10:06:18;;;;;;;18.63;13.87;;;4.70;99.90;;;;;;5033342;28;20210;-61
2020/12/08 10:08:45;;;;;;;19.23;13.70;;;4.90;99.90;;;;;;5031686;28;20230;-61
2020/12/08 10:11:13;;;;;;;18.70;13.97;;;5.00;99.90;;;;;;5033028;28;20659;-61
2020/12/08 10:13:39;;;;;;;17.10;12.87;;;5.00;99.90;;;;;;5032750;28;20214;-61
2020/12/08 10:16:05;;;;;;;17.77;12.63;;;4.90;99.90;;;;;;5032962;28;20678;-61
2020/12/08 10:18:33;;;;;;;18.10;13.33;;;4.90;99.90;;;;;;5032468;28;20226;-61
2020/12/08 10:20:59;;;;;;;19.27;12.90;;;4.90;99.90;;;;;;5032781;28;20229;-61
2020/12/08 10:23:26;;;;;;;16.93;12.57;;;4.90;99.90;;;;;;5032479;28;20597;-61
2020/12/08 10:25:52;;;;;;;24.83;14.90;;;5.00;99.90;;;;;;5033065;28;20659;-61
2020/12/08 10:28:18;;;;;;;98.37;23.20;;;5.20;99.90;;;;;;5032482;28;20237;-60
2020/12/08 10:30:44;;;;;;;28.53;15.33;;;5.30;99.90;;;;;;5032787;28;20202;-60
2020/12/08 10:33:11;;;;;;;24.20;14.40;;;5.50;99.90;;;;;;5033146;28;20577;-61
2020/12/08 10:35:38;;;;;;;23.93;14.90;;;5.80;99.90;;;;;;5032862;28;20581;-61
2020/12/08 10:38:04;;;;;;;28.97;14.77;;;5.90;99.90;;;;;;5033751;28;20237;-61
2020/12/08 10:40:30;;;;;;;50.27;15.70;;;6.00;99.90;;;;;;5033696;28;20397;-61
2020/12/08 10:42:56;;;;;;;62.50;16.80;;;5.90;99.90;;;;;;5033975;28;20206;-61
2020/12/08 10:45:22;;;;;;;20.37;13.87;;;5.80;99.90;;;;;;5032962;28;20214;-61
2020/12/08 10:47:49;;;;;;;20.07;14.27;;;5.90;99.90;;;;;;5033163;28;20230;-61
2020/12/08 10:50:15;;;;;;;18.53;14.10;;;5.90;99.90;;;;;;5033228;28;20720;-61
2020/12/08 10:52:42;;;;;;;17.73;13.07;;;6.00;99.90;;;;;;5033426;28;20217;-61
2020/12/08 10:55:08;;;;;;;17.60;12.93;;;6.20;99.90;;;;;;5033191;28;20213;-61
2020/12/08 10:57:34;;;;;;;19.37;12.67;;;6.30;99.90;;;;;;5032067;28;20660;-61
2020/12/08 11:00:00;;;;;;;17.67;12.67;;;6.50;99.90;;;;;;5031857;28;20278;-61
2020/12/08 11:02:28;;;;;;;17.53;13.13;;;6.50;99.90;;;;;;5032036;28;20701;-62
2020/12/08 11:04:54;;;;;;;16.40;12.40;;;6.50;99.90;;;;;;5032011;28;20209;-62
2020/12/08 11:07:20;;;;;;;17.13;12.77;;;6.50;99.90;;;;;;5032134;28;20210;-61
2020/12/08 11:09:47;;;;;;;17.00;12.97;;;6.40;99.90;;;;;;5031723;28;20305;-61
2020/12/08 11:12:14;;;;;;;17.73;13.07;;;6.30;99.90;;;;;;5032041;28;20202;-61
2020/12/08 11:14:40;;;;;;;18.83;14.07;;;6.20;99.90;;;;;;5031515;28;20206;-62
2020/12/08 11:17:07;;;;;;;17.60;13.33;;;6.20;99.90;;;;;;5031710;28;20198;-61
2020/12/08 11:19:33;;;;;;;22.23;14.33;;;6.30;99.90;;;;;;5031657;28;20543;-61
2020/12/08 11:22:02;;;;;;;17.00;13.27;;;6.40;99.90;;;;;;5031754;28;20214;-62
2020/12/08 11:24:29;;;;;;;17.63;12.93;;;6.50;99.90;;;;;;5031571;28;20206;-62
2020/12/08 11:26:56;;;;;;;16.60;13.17;;;6.60;99.90;;;;;;5032091;28;20216;-61
2020/12/08 11:29:22;;;;;;;17.67;13.43;;;6.60;99.90;;;;;;5031724;28;20237;-61
2020/12/08 11:31:49;;;;;;;18.70;13.67;;;6.70;99.90;;;;;;5032087;28;20217;-61
2020/12/08 11:34:16;;;;;;;17.80;13.43;;;6.80;99.90;;;;;;5031487;28;20690;-61
2020/12/08 11:36:42;;;;;;;18.20;13.40;;;6.80;99.90;;;;;;5032023;28;20210;-61
2020/12/08 11:39:08;;;;;;;16.30;13.00;;;6.60;99.90;;;;;;5031841;28;20234;-62
2020/12/08 11:41:34;;;;;;;18.50;13.77;;;7.00;99.90;;;;;;5031688;28;20226;-62
2020/12/08 11:44:01;;;;;;;19.27;13.57;;;6.40;99.90;;;;;;5030939;28;20206;-61
2020/12/08 11:46:28;;;;;;;18.40;13.73;;;6.50;99.90;;;;;;5031528;28;20210;-61
2020/12/08 11:48:54;;;;;;;19.80;13.63;;;6.80;99.90;;;;;;5031312;28;20226;-61
2020/12/08 11:51:20;;;;;;;20.33;15.45;;;6.90;99.90;;;;;;5028246;28;20445;-61
2020/12/08 11:53:46;;;;;;;21.10;15.60;;;6.90;99.90;;;;;;5029441;28;20678;-60
2020/12/08 11:56:12;;;;;;;19.50;14.80;;;7.10;99.90;;;;;;5031398;28;20278;-63
2020/12/08 11:58:38;;;;;;;18.47;13.77;;;7.30;99.90;;;;;;5030801;28;20241;-62
2020/12/08 12:01:07;;;;;;;19.83;13.63;;;7.40;99.90;;;;;;5031472;28;20234;-62
2020/12/08 12:03:34;;;;;;;18.83;13.97;;;7.50;99.90;;;;;;5031427;28;20237;-62
2020/12/08 12:06:00;;;;;;;18.23;13.67;;;7.50;99.90;;;;;;5031239;28;20206;-64
2020/12/08 12:08:26;;;;;;;17.20;13.37;;;7.60;99.90;;;;;;5030552;28;20740;-62
2020/12/08 12:10:52;;;;;;;18.73;14.00;;;7.50;99.90;;;;;;5031173;28;20276;-62
2020/12/08 12:13:19;;;;;;;19.07;14.47;;;7.40;99.90;;;;;;5031014;28;20218;-62
2020/12/08 12:15:45;;;;;;;18.37;13.97;;;7.30;99.90;;;;;;5032010;28;20209;-62
2020/12/08 12:18:12;;;;;;;17.90;13.90;;;7.30;99.90;;;;;;5030664;28;20218;-62
2020/12/08 12:20:38;;;;;;;18.43;14.13;;;7.30;99.90;;;;;;5030813;28;20222;-61
2020/12/08 12:23:05;;;;;;;18.87;13.73;;;7.30;99.90;;;;;;5030904;28;20583;-62
2020/12/08 12:25:31;;;;;;;64.97;17.67;;;7.30;99.90;;;;;;5030731;28;20210;-63
2020/12/08 12:27:57;;;;;;;18.13;13.43;;;7.20;99.90;;;;;;5030287;28;20229;-62
2020/12/08 12:30:23;;;;;;;18.80;12.97;;;7.20;99.90;;;;;;5030349;28;20670;-61
2020/12/08 12:32:50;;;;;;;19.33;12.27;;;7.10;99.90;;;;;;5034936;28;20214;-61